Wilsonville, Kentucky
Current Conditions -  °F | °C
As of 2:53 AM on Monday 26 Jan 2015 (Local Time) from KLOU Reporting Station
Overcast Overcast  
Wind Chill: 18°   Ceiling: 1100
Heat Index: 28°   Visibility: 10mi
Dew Point: 24°   Wind: 12mph
Humidity: 85%   Direction: 340°NNW
Pressure: 29.8"   Gusts: NA
Location:  38.1735°N, 85.4233°W
Report Text: KLOU 260753Z AUTO 34010KT 10SM OVC011 M02/M04 A2980 RMK AO2 SLP093 P0001 T10221044
Loading
Personal Weather Stations






























Interactive Weather Map New forecast layout! Learn more

10-Day Weather Forecast

Advertisements
Track Severe Weather on mobile